Time;durP1;ratioP1;P1;durP2;ratioP2;P2;SDS_P1;SDS_P2;PMS_P1;PMS_P2;Temp;Humidity;BMP_temperature;BMP_pressure;BME280_temperature;BME280_humidity;BME280_pressure;Samples;Min_cycle;Max_cycle;Signal;HPM_P1;HPM_P2
2022/08/24 18:40:42;;;;;;;7.00;6.15;;;;;;;22.61;64.62;99253.09;5144733;27;20391;-71
2022/08/24 18:43:12;;;;;;;9.55;8.55;;;;;;;22.56;64.96;99241.94;5122931;28;20059;-71
2022/08/24 18:45:39;;;;;;;9.15;8.18;;;;;;;22.70;65.15;99257.50;5122809;28;20332;-71
2022/08/24 18:48:06;;;;;;;10.52;8.43;;;;;;;22.47;65.12;99215.03;5122645;28;20063;-72
2022/08/24 18:50:34;;;;;;;8.25;7.05;;;;;;;22.84;65.53;99255.19;5123069;28;20056;-72
2022/08/24 18:53:02;;;;;;;8.95;7.78;;;;;;;22.90;65.33;99254.50;5104978;28;20339;-72
2022/08/24 18:55:29;;;;;;;12.73;11.40;;;;;;;22.60;64.96;99202.78;5102510;28;20117;-71
2022/08/24 18:58:00;;;;;;;11.20;8.63;;;;;;;22.45;63.94;99180.09;5102432;28;20051;-73
2022/08/24 19:00:27;;;;;;;10.48;9.35;;;;;;;22.90;64.54;99249.94;5102220;28;20091;-74
2022/08/24 19:02:58;;;;;;;10.20;8.90;;;;;;;23.05;64.33;99274.47;5102184;28;20069;-74
2022/08/24 19:05:26;;;;;;;8.85;7.95;;;;;;;23.07;64.85;99272.44;5101987;28;20324;-73
2022/08/24 19:07:54;;;;;;;8.13;7.28;;;;;;;23.09;64.92;99283.94;5101323;28;20056;-74
2022/08/24 19:10:25;;;;;;;11.70;10.50;;;;;;;23.10;64.26;99282.09;5101902;28;20105;-75
2022/08/24 19:12:56;;;;;;;9.85;8.52;;;;;;;23.10;64.08;99291.03;5101796;28;20262;-75
2022/08/24 19:15:26;;;;;;;10.88;8.27;;;;;;;23.13;64.69;99287.16;5101597;28;20052;-74
2022/08/24 19:17:55;;;;;;;13.35;9.05;;;;;;;23.12;63.94;99290.88;5102003;28;20044;-74
2022/08/24 19:20:23;;;;;;;10.80;8.77;;;;;;;23.13;64.45;99290.72;5101847;28;20308;-74
2022/08/24 19:22:51;;;;;;;25.20;8.73;;;;;;;23.14;64.76;99287.00;5102518;28;20040;-75
2022/08/24 19:25:24;;;;;;;12.63;8.48;;;;;;;23.15;63.50;99288.69;5102146;28;20075;-74
2022/08/24 19:27:53;;;;;;;8.77;7.90;;;;;;;22.66;64.28;99217.47;5102294;28;20056;-74
2022/08/24 19:30:22;;;;;;;9.40;7.85;;;;;;;23.16;64.43;99289.53;5101932;28;20454;-74
2022/08/24 19:32:51;;;;;;;10.45;8.70;;;;;;;23.11;63.95;99278.38;5101686;28;20285;-74
2022/08/24 19:35:19;;;;;;;12.73;9.18;;;;;;;23.13;64.39;99285.31;5101631;28;20082;-75
2022/08/24 19:37:48;;;;;;;13.38;10.18;;;;;;;23.13;64.15;99282.59;5101858;28;20048;-74
2022/08/24 19:40:19;;;;;;;10.55;9.45;;;;;;;23.02;63.74;99262.13;5101370;28;20110;-74
2022/08/24 19:42:48;;;;;;;10.57;9.48;;;;;;;23.14;63.76;99278.03;5101598;28;20052;-75
2022/08/24 19:48:06;;;;;;;10.05;8.35;;;;;;;22.88;64.18;99233.06;5102698;28;20040;-75
2022/08/24 19:50:33;;;;;;;10.25;8.35;;;;;;;22.90;64.61;99251.81;5096998;28;20263;-74
2022/08/24 19:53:01;;;;;;;11.65;8.43;;;;;;;23.08;64.65;99276.84;5089640;28;20052;-74
2022/08/24 19:55:28;;;;;;;10.45;8.20;;;;;;;23.07;64.32;99283.25;5073219;28;20040;-74
2022/08/24 19:58:03;;;;;;;9.10;7.47;;;;;;;23.10;63.81;99274.81;5091655;28;20301;-74
2022/08/24 20:00:36;;;;;;;9.85;8.30;;;;;;;22.62;63.70;99195.34;5088597;28;20198;-73
2022/08/24 20:03:08;;;;;;;;;;;;;;;22.87;63.42;99273.75;5089815;28;20044;-74
2022/08/24 20:05:35;;;;;;;10.73;7.93;;;;;;;22.98;65.03;99285.09;5088528;28;19958;-74
2022/08/24 20:08:04;;;;;;;9.82;8.80;;;;;;;23.02;65.00;99274.81;5088020;28;20060;-75
2022/08/24 20:10:32;;;;;;;11.18;7.90;;;;;;;23.03;65.10;99280.03;5088275;28;20094;-75
2022/08/24 20:13:00;;;;;;;10.30;8.88;;;;;;;23.03;64.90;99282.75;5088469;28;20052;-75
2022/08/24 20:15:28;;;;;;;10.18;8.93;;;;;;;22.68;65.26;99226.25;5087842;28;20194;-74
2022/08/24 20:17:57;;;;;;;9.15;8.15;;;;;;;22.35;65.12;99163.16;5087628;28;20102;-74
2022/08/24 20:20:27;;;;;;;10.00;8.82;;;;;;;22.76;65.07;99233.53;5087535;28;20052;-75
2022/08/24 20:22:55;;;;;;;12.48;9.43;;;;;;;22.98;65.19;99271.59;5087670;28;20060;-74
2022/08/24 20:25:22;;;;;;;11.45;10.25;;;;;;;22.86;65.11;99255.84;5087645;28;20186;-73
2022/08/24 20:27:50;;;;;;;10.63;8.63;;;;;;;22.94;65.13;99272.09;5087307;28;20056;-73
2022/08/24 20:30:17;;;;;;;11.88;9.60;;;;;;;22.93;65.53;99271.25;5087696;28;20048;-74
2022/08/24 20:32:45;;;;;;;11.77;9.65;;;;;;;22.93;66.04;99263.13;5086703;28;20113;-74
2022/08/24 20:35:13;;;;;;;16.42;14.05;;;;;;;22.76;65.31;99249.75;5086347;28;20056;-75
2022/08/24 20:37:42;;;;;;;15.80;14.10;;;;;;;22.88;65.10;99270.88;5086894;28;20319;-74
2022/08/24 20:40:14;;;;;;;18.35;14.90;;;;;;;22.89;64.82;99286.09;5085947;28;20048;-75
2022/08/24 20:42:42;;;;;;;13.55;11.95;;;;;;;22.85;65.64;99278.47;5086250;28;20110;-74
2022/08/24 20:45:12;;;;;;;15.70;13.07;;;;;;;22.46;65.92;99211.47;5086606;28;20060;-74
2022/08/24 20:47:44;;;;;;;12.63;9.88;;;;;;;22.81;65.56;99274.41;5086871;28;20060;-73
2022/08/24 20:50:11;;;;;;;17.80;10.73;;;;;;;22.67;65.91;99248.88;5086639;28;20048;-75
2022/08/24 20:52:40;;;;;;;13.90;11.30;;;;;;;22.65;65.91;99248.19;5086956;28;20110;-74
2022/08/24 20:55:11;;;;;;;16.27;11.65;;;;;;;22.80;65.96;99275.44;5087237;28;20052;-74
2022/08/24 20:57:39;;;;;;;19.45;13.02;;;;;;;22.80;66.01;99262.75;5086964;28;20082;-74
2022/08/24 21:00:09;;;;;;;15.82;13.00;;;;;;;22.80;66.05;99278.97;5085607;28;20146;-74
2022/08/24 21:02:37;;;;;;;20.13;13.50;;;;;;;22.76;66.09;99263.25;5085961;28;20066;-74
2022/08/24 21:05:05;;;;;;;20.90;14.48;;;;;;;22.78;66.00;99277.44;5086751;28;20228;-75
2022/08/24 21:07:32;;;;;;;24.85;15.65;;;;;;;22.78;66.18;99272.88;5086887;28;20049;-74
